Time;durP1;ratioP1;P1;durP2;ratioP2;P2;SDS_P1;SDS_P2;PMS_P1;PMS_P2;Temp;Humidity;BMP_temperature;BMP_pressure;BME280_temperature;BME280_humidity;BME280_pressure;Samples;Min_cycle;Max_cycle;Signal;HPM_P1;HPM_P2
2023/05/12 00:03:55;;;;;;;3.90;3.60;;;;;;;14.51;67.58;97740.81;8485300;27;20233;-68
2023/05/12 00:07:59;;;;;;;4.00;3.63;;;;;;;14.40;67.35;97741.47;8485368;27;20339;-68
2023/05/12 00:12:02;;;;;;;3.73;3.53;;;;;;;14.03;68.68;97741.19;8485151;27;20228;-68
2023/05/12 00:16:06;;;;;;;4.30;4.00;;;;;;;14.13;68.82;97735.44;8484678;27;20236;-68
2023/05/12 00:20:10;;;;;;;3.90;3.50;;;;;;;14.34;67.55;97728.03;8484802;28;20238;-68
2023/05/12 00:24:15;;;;;;;3.70;3.40;;;;;;;14.00;69.65;97738.78;8484974;27;20529;-68
2023/05/12 00:28:18;;;;;;;4.27;3.87;;;;;;;13.96;69.23;97739.06;8475643;27;20226;-70
2023/05/12 00:32:21;;;;;;;3.90;3.60;;;;;;;13.89;69.32;97728.19;8484675;28;20224;-68
2023/05/12 00:36:25;;;;;;;3.30;3.10;;;;;;;14.20;68.41;97731.47;8484226;27;20299;-68
2023/05/12 00:40:29;;;;;;;3.80;3.50;;;;;;;14.26;68.50;97726.75;8483918;28;20234;-68
2023/05/12 00:44:32;;;;;;;4.10;3.80;;;;;;;13.95;69.36;97734.78;8483788;27;20237;-68
2023/05/12 00:48:35;;;;;;;4.20;3.80;;;;;;;13.88;69.66;97727.34;8482969;27;20290;-68
2023/05/12 00:52:38;;;;;;;4.43;4.03;;;;;;;13.99;69.04;97728.44;8483774;28;20250;-68
2023/05/12 00:56:42;;;;;;;4.20;3.80;;;;;;;13.91;69.19;97731.53;8483910;27;20286;-68
2023/05/12 01:00:45;;;;;;;3.93;3.70;;;;;;;14.23;68.23;97720.88;8483428;27;20235;-68
2023/05/12 01:04:48;;;;;;;4.33;3.90;;;;;;;14.20;68.58;97723.66;8483508;28;20504;-68
2023/05/12 01:08:51;;;;;;;5.40;4.63;;;;;;;13.87;68.22;97720.47;8483272;27;20367;-68
2023/05/12 01:12:55;;;;;;;4.47;4.10;;;;;;;14.07;68.96;97723.63;8483167;28;20258;-68
2023/05/12 01:17:00;;;;;;;4.60;4.20;;;;;;;13.71;70.46;97726.69;8482857;28;20225;-68
2023/05/12 01:21:03;;;;;;;4.17;3.80;;;;;;;14.16;68.70;97714.38;8482710;27;20290;-68
2023/05/12 01:25:10;;;;;;;4.43;4.13;;;;;;;13.96;68.63;97723.44;8482694;28;20222;-68
2023/05/12 01:29:14;;;;;;;4.33;4.03;;;;;;;14.13;69.44;97717.19;8482649;28;20236;-68
2023/05/12 01:33:17;;;;;;;3.87;3.60;;;;;;;14.38;67.84;97719.09;8482585;28;20228;-68
2023/05/12 01:37:20;;;;;;;4.67;3.77;;;;;;;14.44;67.47;97716.91;8473801;27;20248;-68
2023/05/12 01:41:22;;;;;;;5.07;4.00;;;;;;;14.32;68.47;97712.50;8482077;28;20234;-68
2023/05/12 01:45:26;;;;;;;4.47;4.07;;;;;;;14.25;68.17;97701.59;8482163;28;20521;-68
2023/05/12 01:49:29;;;;;;;4.77;4.37;;;;;;;14.53;67.48;97710.28;8481933;28;20298;-68
2023/05/12 01:53:32;;;;;;;4.43;4.13;;;;;;;14.57;66.98;97719.59;8481829;27;20229;-68
2023/05/12 01:57:34;;;;;;;4.50;4.20;;;;;;;14.71;67.01;97710.88;8480920;27;20254;-68
2023/05/12 02:01:39;;;;;;;4.87;4.47;;;;;;;14.71;66.94;97712.66;8481676;28;20570;-68
2023/05/12 02:05:41;;;;;;;5.00;4.60;;;;;;;14.75;66.55;97699.31;8481186;27;20230;-68
2023/05/12 02:09:44;;;;;;;4.40;4.00;;;;;;;14.58;67.36;97702.19;8481617;27;20226;-68
2023/05/12 02:13:47;;;;;;;4.90;4.40;;;;;;;14.84;67.26;97709.13;8481428;27;20222;-68
2023/05/12 02:17:53;;;;;;;4.40;4.00;;;;;;;14.68;67.18;97707.63;8481120;28;20271;-68
2023/05/12 02:21:56;;;;;;;4.80;4.40;;;;;;;14.63;66.96;97681.88;8481154;28;20254;-68
2023/05/12 02:25:58;;;;;;;4.67;4.27;;;;;;;14.80;66.94;97709.44;8481114;28;20231;-68
2023/05/12 02:30:01;;;;;;;5.30;4.80;;;;;;;14.80;67.15;97709.44;8480723;27;20294;-68
2023/05/12 02:34:07;;;;;;;5.40;4.90;;;;;;;14.74;67.07;97709.84;8480644;28;20230;-68
2023/05/12 02:38:10;;;;;;;5.40;5.00;;;;;;;14.62;67.82;97704.50;8480674;28;20275;-68
2023/05/12 02:42:13;;;;;;;5.33;4.93;;;;;;;14.78;67.41;97712.16;8480267;27;20235;-68
2023/05/12 02:46:16;;;;;;;5.13;4.63;;;;;;;14.85;67.16;97704.78;8480547;28;20234;-68
2023/05/12 02:50:21;;;;;;;5.10;4.80;;;;;;;14.84;66.93;97701.31;8471695;28;20231;-68
2023/05/12 02:54:24;;;;;;;5.50;4.97;;;;;;;14.81;67.11;97704.16;8480173;27;20250;-68
2023/05/12 02:58:26;;;;;;;5.20;4.90;;;;;;;14.73;67.47;97695.97;8480302;28;20413;-68
2023/05/12 03:02:29;;;;;;;5.23;4.83;;;;;;;14.68;67.34;97703.28;8480321;28;20238;-68
2023/05/12 03:06:33;;;;;;;5.03;4.73;;;;;;;14.75;66.92;97701.09;8480004;27;20233;-68
2023/05/12 03:10:36;;;;;;;5.27;4.77;;;;;;;14.53;66.68;97652.13;8483197;27;20235;-68
2023/05/12 03:14:39;;;;;;;4.90;4.40;;;;;;;14.81;66.77;97698.94;8487021;27;20585;-68
2023/05/12 03:18:42;;;;;;;6.73;5.03;;;;;;;14.70;67.08;97683.16;8486706;28;20250;-68
2023/05/12 03:22:46;;;;;;;4.63;4.23;;;;;;;14.90;66.75;97691.44;8486510;27;20234;-68
2023/05/12 03:26:49;;;;;;;5.47;4.97;;;;;;;14.86;66.75;97696.00;8486879;28;20226;-68
2023/05/12 03:30:51;;;;;;;5.63;4.97;;;;;;;14.86;66.38;97699.44;8486506;27;20245;-68
2023/05/12 03:34:54;;;;;;;4.83;4.43;;;;;;;14.87;66.08;97702.91;8486380;28;20244;-68
2023/05/12 03:38:58;;;;;;;4.73;4.33;;;;;;;14.87;66.08;97697.69;8486417;28;20534;-68
2023/05/12 03:43:01;;;;;;;5.20;4.80;;;;;;;14.89;66.04;97690.59;8485791;27;20238;-68
2023/05/12 03:47:04;;;;;;;4.73;4.33;;;;;;;14.92;65.95;97697.38;8485569;27;20575;-68
2023/05/12 03:51:07;;;;;;;4.87;4.57;;;;;;;14.91;66.02;97699.16;8486205;28;20237;-68
2023/05/12 03:55:11;;;;;;;5.53;4.63;;;;;;;14.95;66.59;97698.00;8485902;27;20238;-68
2023/05/12 03:59:14;;;;;;;5.60;4.53;;;;;;;14.95;66.64;97699.78;8485720;27;20238;-68
2023/05/12 04:03:17;;;;;;;4.93;4.37;;;;;;;14.94;66.09;97688.50;8485338;27;20253;-68
2023/05/12 04:07:19;;;;;;;5.20;4.57;;;;;;;14.92;65.89;97681.72;8476953;28;20540;-69
2023/05/12 04:11:24;;;;;;;4.93;4.53;;;;;;;14.90;66.02;97692.25;8485223;27;20410;-68
2023/05/12 04:15:27;;;;;;;5.07;4.63;;;;;;;14.91;66.53;97698.28;8485076;27;20230;-68
2023/05/12 04:19:30;;;;;;;4.90;4.50;;;;;;;14.93;66.47;97692.06;8484765;28;20231;-68
2023/05/12 04:23:32;;;;;;;4.93;4.47;;;;;;;14.99;66.34;97709.91;8483598;27;20230;-68
2023/05/12 04:27:36;;;;;;;7.07;6.47;;;;;;;14.97;65.95;97701.34;8484879;27;20230;-68
2023/05/12 04:31:40;;;;;;;5.80;4.83;;;;;;;15.01;65.90;97709.81;8484677;28;20551;-68
2023/05/12 04:35:43;;;;;;;6.10;4.67;;;;;;;14.84;66.03;97716.13;8484418;27;20291;-68
2023/05/12 04:39:45;;;;;;;5.47;4.97;;;;;;;14.69;65.93;97707.53;8483900;27;20235;-68
2023/05/12 04:43:51;;;;;;;4.93;4.53;;;;;;;14.62;67.27;97716.69;8484079;28;20279;-68
2023/05/12 04:47:57;;;;;;;6.37;4.57;;;;;;;14.75;66.35;97714.94;8484144;28;20227;-68
2023/05/12 04:51:59;;;;;;;4.93;4.57;;;;;;;14.69;66.57;97723.19;8483648;27;20226;-68
2023/05/12 04:56:02;;;;;;;5.40;4.67;;;;;;;14.52;66.11;97726.84;8483844;27;20243;-68
2023/05/12 05:00:08;;;;;;;4.67;4.30;;;;;;;14.56;66.04;97723.09;8483575;27;20296;-67
2023/05/12 05:04:10;;;;;;;5.37;4.83;;;;;;;14.75;65.90;97711.50;8483646;28;20257;-70
2023/05/12 05:08:13;;;;;;;5.23;4.83;;;;;;;14.63;65.75;97674.06;8483424;27;20423;-69
2023/05/12 05:12:16;;;;;;;6.10;5.13;;;;;;;15.01;65.84;97720.25;8483394;28;20225;-68
2023/05/12 05:16:22;;;;;;;6.43;4.37;;;;;;;15.04;65.66;97720.88;8482793;27;20224;-69
2023/05/12 05:20:27;;;;;;;6.90;4.60;;;;;;;15.13;65.59;97719.41;8482807;27;20234;-69
2023/05/12 05:24:31;;;;;;;4.53;4.17;;;;;;;14.90;65.95;97710.50;8483076;28;20425;-68
2023/05/12 05:28:33;;;;;;;4.50;4.10;;;;;;;15.08;66.20;97718.03;8482974;27;20231;-68
2023/05/12 05:32:39;;;;;;;5.80;4.67;;;;;;;15.04;65.50;97700.00;8482344;28;20237;-68
2023/05/12 05:36:42;;;;;;;4.93;4.63;;;;;;;15.11;65.88;97726.50;8482632;27;20226;-68
2023/05/12 05:40:44;;;;;;;5.60;5.10;;;;;;;15.21;65.52;97724.09;8482224;27;20275;-68
2023/05/12 05:44:55;;;;;;;4.93;4.43;;;;;;;15.22;65.38;97729.22;8482131;28;20233;-68
2023/05/12 05:48:59;;;;;;;4.73;4.40;;;;;;;15.10;64.39;97734.41;8482099;28;20223;-68
2023/05/12 05:53:02;;;;;;;5.07;4.43;;;;;;;14.77;65.99;97735.72;8482018;27;20223;-68
2023/05/12 05:57:08;;;;;;;5.27;4.87;;;;;;;14.53;66.10;97741.53;8481780;28;20446;-68
2023/05/12 06:01:14;;;;;;;4.97;4.57;;;;;;;14.56;66.98;97743.13;8481712;28;20233;-69
2023/05/12 06:05:18;;;;;;;6.33;4.90;;;;;;;14.54;66.82;97742.38;8481526;28;20238;-68
2023/05/12 06:09:21;;;;;;;5.23;4.67;;;;;;;14.90;66.85;97751.41;8473082;28;20339;-69
2023/05/12 06:13:24;;;;;;;5.27;4.57;;;;;;;14.17;68.65;97763.78;8481286;27;20448;-69
2023/05/12 06:17:27;;;;;;;5.30;4.90;;;;;;;14.52;67.05;97758.09;8481172;28;20226;-68
2023/05/12 06:21:32;;;;;;;4.47;4.17;;;;;;;13.88;68.30;97768.19;8480694;27;20286;-68
2023/05/12 06:25:35;;;;;;;4.53;4.23;;;;;;;13.72;68.99;97768.25;8480795;27;20484;-68
2023/05/12 06:29:38;;;;;;;5.30;4.30;;;;;;;13.71;69.38;97773.53;8480727;28;20233;-68
2023/05/12 06:33:41;;;;;;;4.53;4.13;;;;;;;13.81;69.84;97764.25;8480765;27;20293;-68
2023/05/12 06:37:48;;;;;;;4.23;3.93;;;;;;;13.65;70.58;97775.59;8480450;27;20231;-69
2023/05/12 06:41:51;;;;;;;4.67;4.13;;;;;;;13.60;70.18;97753.38;8479971;28;20238;-69
2023/05/12 06:45:55;;;;;;;5.27;4.40;;;;;;;13.85;70.36;97781.38;8479653;28;20264;-68
2023/05/12 06:49:58;;;;;;;4.87;4.40;;;;;;;13.68;68.83;97694.72;8480295;28;20240;-68
2023/05/12 06:54:02;;;;;;;5.23;4.17;;;;;;;14.43;68.57;97780.38;8480162;28;20235;-68
2023/05/12 06:58:05;;;;;;;5.40;4.57;;;;;;;14.06;69.85;97781.81;8480119;27;20222;-68
2023/05/12 07:02:08;;;;;;;4.70;4.30;;;;;;;14.33;69.10;97781.03;8480004;27;20246;-68
2023/05/12 07:06:11;;;;;;;5.83;4.27;;;;;;;14.34;69.03;97780.13;8480104;28;20230;-69
2023/05/12 07:10:15;;;;;;;7.23;4.50;;;;;;;14.40;69.39;97777.13;8479730;28;20541;-72
2023/05/12 07:14:18;;;;;;;5.23;4.80;;;;;;;14.13;69.52;97777.91;8445688;28;20530;-69
2023/05/12 07:18:21;;;;;;;4.60;4.17;;;;;;;14.12;70.43;97778.00;8446267;28;20574;-68
2023/05/12 07:22:24;;;;;;;4.87;4.40;;;;;;;14.06;70.56;97789.63;8445763;28;20244;-68
2023/05/12 07:26:28;;;;;;;4.70;4.00;;;;;;;14.31;71.13;97783.75;8445968;28;20252;-67
2023/05/12 07:30:31;;;;;;;4.60;4.20;;;;;;;14.06;71.14;97784.44;8446138;27;20237;-67
2023/05/12 07:34:37;;;;;;;3.83;3.63;;;;;;;14.61;70.13;97782.78;8446032;28;20235;-67
2023/05/12 07:38:40;;;;;;;4.10;3.73;;;;;;;14.35;70.82;97790.41;8445877;28;20234;-68
2023/05/12 07:42:44;;;;;;;4.23;3.83;;;;;;;14.41;71.22;97794.41;8445503;28;20241;-66
2023/05/12 07:46:47;;;;;;;4.77;4.30;;;;;;;14.84;69.02;97781.31;8445539;27;20230;-67
2023/05/12 07:50:50;;;;;;;4.17;3.87;;;;;;;14.61;70.19;97796.63;8445828;28;20234;-67
2023/05/12 07:54:53;;;;;;;4.33;3.93;;;;;;;14.50;69.94;97801.66;8445664;28;20238;-67
2023/05/12 07:58:57;;;;;;;4.07;3.73;;;;;;;15.03;68.77;97768.72;8451925;28;20228;-67
2023/05/12 08:03:00;;;;;;;3.90;3.60;;;;;;;14.85;69.43;97783.81;8451540;28;20231;-67
2023/05/12 08:07:03;;;;;;;4.10;3.80;;;;;;;14.80;69.16;97803.28;8451481;28;20224;-67
2023/05/12 08:11:06;;;;;;;6.50;3.83;;;;;;;14.54;69.38;97761.44;8451390;27;20226;-67
2023/05/12 08:15:10;;;;;;;3.67;3.43;;;;;;;14.61;70.27;97798.41;8451542;28;20554;-67
2023/05/12 08:19:13;;;;;;;3.87;3.57;;;;;;;14.77;68.74;97811.28;8451367;28;20230;-67
2023/05/12 08:23:16;;;;;;;4.10;3.80;;;;;;;14.61;69.31;97798.41;8450931;27;20303;-67
2023/05/12 08:27:19;;;;;;;3.77;3.57;;;;;;;14.64;70.26;97811.22;8476115;27;20487;-66
2023/05/12 08:31:24;;;;;;;5.50;4.40;;;;;;;14.93;69.06;97811.16;8484365;28;20531;-66
2023/05/12 08:35:26;;;;;;;4.37;3.43;;;;;;;14.97;67.62;97815.25;8484305;27;20315;-66
2023/05/12 08:39:30;;;;;;;4.07;3.60;;;;;;;14.89;68.22;97822.72;8483885;28;20241;-66
2023/05/12 08:43:37;;;;;;;3.73;3.27;;;;;;;15.54;66.92;97828.00;8483827;27;20236;-66
2023/05/12 08:47:43;;;;;;;5.00;3.70;;;;;;;14.86;68.53;97831.56;8484284;28;20439;-66
2023/05/12 08:51:47;;;;;;;3.70;3.40;;;;;;;15.91;66.79;97822.94;8484053;27;20426;-66
2023/05/12 08:56:01;;;;;;;3.87;3.57;;;;;;;15.45;67.63;97826.00;8483625;28;20227;-65
2023/05/12 09:00:27;;;;;;;4.00;3.70;;;;;;;15.26;67.69;97826.38;8475508;27;20505;-66
2023/05/12 09:04:37;;;;;;;4.50;4.10;;;;;;;15.20;69.36;97835.44;8483370;27;20237;-67
2023/05/12 09:08:40;;;;;;;3.53;3.23;;;;;;;15.63;66.91;97819.56;8483094;28;20332;-67
2023/05/12 09:12:46;;;;;;;3.93;3.47;;;;;;;15.53;67.71;97823.72;8483294;28;20230;-68
2023/05/12 09:16:50;;;;;;;3.97;3.67;;;;;;;15.66;68.31;97823.72;8483290;28;20223;-68
2023/05/12 09:20:55;;;;;;;4.00;3.70;;;;;;;15.29;68.43;97833.16;8483109;28;20223;-68
2023/05/12 09:24:57;;;;;;;3.37;2.87;;;;;;;15.03;67.65;97841.75;8482886;27;20225;-68
2023/05/12 09:29:06;;;;;;;3.33;3.13;;;;;;;15.07;68.12;97764.16;8482464;27;20425;-67
2023/05/12 09:33:11;;;;;;;3.80;3.50;;;;;;;15.23;68.86;97844.84;8482606;28;20518;-67
2023/05/12 09:37:18;;;;;;;3.67;3.30;;;;;;;15.58;68.38;97837.28;8482261;27;20292;-70
2023/05/12 09:41:23;;;;;;;3.07;2.83;;;;;;;15.09;68.09;97843.13;8473865;27;20242;-69
2023/05/12 09:45:26;;;;;;;3.27;2.97;;;;;;;15.19;67.15;97841.63;8482374;27;20245;-69
2023/05/12 09:49:28;;;;;;;3.30;2.93;;;;;;;15.18;68.22;97849.53;8482172;28;20245;-69
2023/05/12 09:53:42;;;;;;;3.70;3.40;;;;;;;15.38;67.93;97841.25;8482036;27;20234;-69
2023/05/12 09:57:45;;;;;;;3.47;3.17;;;;;;;15.42;67.06;97837.50;8481772;28;20554;-69
2023/05/12 10:01:49;;;;;;;4.80;2.87;;;;;;;15.30;67.47;97840.06;8481777;27;20258;-69
2023/05/12 10:05:53;;;;;;;3.13;2.93;;;;;;;15.32;65.54;97830.38;8481692;27;20229;-69
2023/05/12 10:10:00;;;;;;;2.47;2.37;;;;;;;15.61;65.30;97825.81;8481413;28;20221;-69
2023/05/12 10:14:03;;;;;;;2.40;2.20;;;;;;;16.11;64.47;97834.63;8481337;28;20416;-69
2023/05/12 10:18:07;;;;;;;2.23;2.13;;;;;;;16.02;63.01;97836.09;8481392;28;20234;-69
2023/05/12 10:22:11;;;;;;;2.40;2.20;;;;;;;15.49;63.75;97835.28;8480615;27;20239;-69
2023/05/12 10:26:16;;;;;;;2.13;2.03;;;;;;;16.31;61.99;97835.03;8481066;27;20238;-70
2023/05/12 10:30:18;;;;;;;2.00;1.90;;;;;;;16.52;63.34;97837.91;8471854;28;20241;-70
2023/05/12 10:34:21;;;;;;;1.70;1.60;;;;;;;15.98;60.69;97839.03;8480950;28;20249;-69
2023/05/12 10:38:24;;;;;;;2.00;1.83;;;;;;;15.98;61.05;97845.09;8480767;28;20403;-70
2023/05/12 10:42:37;;;;;;;1.90;1.80;;;;;;;15.69;61.99;97831.38;8480332;28;20231;-69
2023/05/12 10:46:42;;;;;;;2.00;1.73;;;;;;;15.99;61.00;97838.06;8480383;27;20227;-69
2023/05/12 10:50:53;;;;;;;3.30;2.00;;;;;;;16.27;58.58;97842.25;8479788;28;20396;-70
2023/05/12 10:55:00;;;;;;;1.97;1.87;;;;;;;15.29;62.91;97849.66;8480215;28;20225;-69
2023/05/12 10:59:11;;;;;;;1.93;1.83;;;;;;;15.57;63.09;97848.69;8480050;27;20228;-69
2023/05/12 11:03:16;;;;;;;3.43;2.83;;;;;;;15.44;64.37;97851.28;8479760;27;20258;-69
2023/05/12 11:07:25;;;;;;;3.13;2.93;;;;;;;15.49;65.02;97850.13;8471925;28;20499;-70
2023/05/12 11:11:28;;;;;;;3.20;3.00;;;;;;;15.36;66.92;97860.53;8479098;27;20227;-70
2023/05/12 11:15:32;;;;;;;3.57;3.27;;;;;;;15.80;65.70;97860.22;8479934;28;20253;-70
2023/05/12 11:19:35;;;;;;;3.83;3.50;;;;;;;15.53;65.74;97826.31;8480305;28;20228;-69
2023/05/12 11:23:38;;;;;;;3.83;2.83;;;;;;;15.34;64.23;97870.22;8480247;28;20266;-69
2023/05/12 11:27:47;;;;;;;3.10;2.83;;;;;;;15.40;64.57;97868.06;8480023;27;20223;-69
2023/05/12 11:31:53;;;;;;;3.83;3.20;;;;;;;15.87;64.93;97867.66;8483145;27;20530;-70
2023/05/12 11:35:56;;;;;;;3.13;2.93;;;;;;;15.76;65.25;97861.38;8486430;27;20231;-70
2023/05/12 11:39:58;;;;;;;4.20;3.17;;;;;;;15.76;64.89;97855.31;8486006;28;20231;-70
2023/05/12 11:44:15;;;;;;;3.30;3.00;;;;;;;15.53;63.59;97778.53;8485724;28;20610;-70
2023/05/12 11:48:20;;;;;;;3.50;3.20;;;;;;;16.39;64.17;97856.22;8477034;27;20225;-71
2023/05/12 11:52:24;;;;;;;3.63;3.33;;;;;;;15.99;63.99;97862.44;8485567;27;20230;-70
2023/05/12 11:56:26;;;;;;;3.30;3.10;;;;;;;15.82;64.36;97860.97;8485840;28;20227;-70
2023/05/12 12:00:34;;;;;;;3.70;3.40;;;;;;;16.05;63.61;97862.94;8485686;27;20232;-70
2023/05/12 12:04:40;;;;;;;3.33;3.13;;;;;;;15.97;64.70;97866.06;8485280;27;20233;-70
2023/05/12 12:08:50;;;;;;;3.47;3.17;;;;;;;16.08;63.57;97863.56;8485499;28;20393;-70
2023/05/12 12:12:53;;;;;;;3.25;2.92;;;;;;;16.15;63.77;97862.22;8484262;28;20420;-69
2023/05/12 12:16:56;;;;;;;3.80;3.13;;;;;;;16.30;63.83;97864.72;8484684;28;20233;-69
2023/05/12 12:21:01;;;;;;;2.97;2.70;;;;;;;16.67;64.04;97873.41;8485047;28;20411;-69
2023/05/12 12:25:05;;;;;;;2.50;2.30;;;;;;;16.03;62.88;97878.75;8484817;27;20492;-70
2023/05/12 12:29:08;;;;;;;2.07;1.80;;;;;;;15.92;62.89;97882.06;8484863;27;20221;-69
2023/05/12 12:33:11;;;;;;;2.30;2.00;;;;;;;15.84;62.79;97884.38;8484687;27;20227;-69
2023/05/12 12:37:15;;;;;;;2.83;2.10;;;;;;;15.56;63.27;97870.50;8484575;27;20232;-69
2023/05/12 12:41:19;;;;;;;2.50;2.30;;;;;;;16.15;63.09;97890.13;8474849;28;20432;-70
2023/05/12 12:45:21;;;;;;;2.80;2.33;;;;;;;16.04;64.01;97893.47;8483606;27;20230;-69
2023/05/12 12:49:24;;;;;;;2.57;2.47;;;;;;;16.06;64.18;97886.34;8484123;28;20226;-70
2023/05/12 12:53:29;;;;;;;2.50;2.30;;;;;;;16.52;61.45;97888.41;8482597;28;20582;-69
2023/05/12 12:57:32;;;;;;;2.30;1.87;;;;;;;16.55;61.45;97888.19;8484072;27;20249;-68
2023/05/12 13:01:35;;;;;;;2.13;2.00;;;;;;;15.97;61.23;97893.03;8483707;27;20238;-69
2023/05/12 13:05:37;;;;;;;2.63;2.10;;;;;;;16.05;62.33;97896.91;8483538;28;20244;-69
2023/05/12 13:09:42;;;;;;;2.10;2.00;;;;;;;16.05;63.29;97902.13;8483551;28;20517;-69
2023/05/12 13:13:47;;;;;;;2.20;2.10;;;;;;;16.01;62.56;97901.47;8483867;28;20269;-69
2023/05/12 13:17:50;;;;;;;2.20;2.10;;;;;;;16.00;62.62;97894.59;8483374;28;20496;-69
2023/05/12 13:21:53;;;;;;;2.27;2.10;;;;;;;15.98;62.44;97892.09;8483234;28;20533;-69
2023/05/12 13:25:57;;;;;;;2.30;2.10;;;;;;;16.09;62.77;97901.81;8482897;27;20298;-68
2023/05/12 13:30:03;;;;;;;2.20;2.10;;;;;;;16.29;62.52;97869.09;8482828;28;20230;-69
2023/05/12 13:34:05;;;;;;;2.47;2.27;;;;;;;16.35;62.59;97878.28;8482736;27;20229;-69
2023/05/12 13:38:09;;;;;;;2.80;2.60;;;;;;;15.94;63.00;97908.09;8482615;28;20333;-69
2023/05/12 13:42:13;;;;;;;2.27;2.17;;;;;;;16.19;63.18;97905.47;8482322;28;20239;-69
2023/05/12 13:46:16;;;;;;;2.13;2.03;;;;;;;16.06;64.15;97895.97;8482218;28;20248;-70
2023/05/12 13:50:19;;;;;;;2.47;2.27;;;;;;;16.42;61.94;97905.69;8482771;27;20216;-70
2023/05/12 13:54:23;;;;;;;2.30;2.20;;;;;;;15.85;62.66;97904.31;8482325;28;20229;-70
2023/05/12 13:58:27;;;;;;;2.50;2.27;;;;;;;15.68;64.01;97904.56;8482247;27;20228;-69
2023/05/12 14:02:30;;;;;;;2.43;2.33;;;;;;;16.10;62.51;97903.47;8482313;27;20231;-69
2023/05/12 14:06:32;;;;;;;2.90;2.70;;;;;;;16.39;61.85;97900.66;8482140;28;20243;-68
2023/05/12 14:10:35;;;;;;;2.53;2.20;;;;;;;16.27;62.48;97909.34;8481478;27;20234;-69
2023/05/12 14:14:39;;;;;;;2.43;2.33;;;;;;;16.49;62.21;97908.72;8481471;28;20240;-70
2023/05/12 14:18:42;;;;;;;3.20;3.00;;;;;;;15.56;64.85;97888.75;8481444;27;20232;-70
2023/05/12 14:22:45;;;;;;;2.90;2.70;;;;;;;16.41;62.06;97893.53;8481229;28;20241;-69
2023/05/12 14:26:48;;;;;;;2.97;2.77;;;;;;;16.36;62.88;97900.88;8480891;28;20225;-70
2023/05/12 14:30:53;;;;;;;2.70;2.50;;;;;;;16.35;62.09;97910.47;8480876;28;20222;-70
2023/05/12 14:34:55;;;;;;;2.95;2.65;;;;;;;16.48;60.67;97816.38;8478975;28;20715;-70
2023/05/12 14:38:58;;;;;;;3.37;3.10;;;;;;;16.83;61.19;97888.91;8480454;27;20226;-70
2023/05/12 14:43:02;;;;;;;3.40;3.10;;;;;;;16.96;61.32;97915.00;8480043;28;20646;-70
2023/05/12 14:47:08;;;;;;;6.13;5.00;;;;;;;17.04;61.24;97917.94;8480461;27;20387;-70
2023/05/12 14:51:11;;;;;;;4.57;4.17;;;;;;;16.68;61.56;97913.47;8480480;28;20234;-70
2023/05/12 14:55:15;;;;;;;4.37;3.97;;;;;;;16.95;62.12;97918.59;8480438;28;20261;-70
2023/05/12 14:59:18;;;;;;;2.63;2.40;;;;;;;17.17;60.26;97905.63;8471347;28;20226;-72
2023/05/12 15:03:23;;;;;;;3.27;2.97;;;;;;;17.20;60.74;97913.25;8479995;28;20234;-71
2023/05/12 15:07:26;;;;;;;3.40;3.20;;;;;;;17.18;60.96;97890.75;8479654;28;20514;-70
2023/05/12 15:11:29;;;;;;;3.43;2.70;;;;;;;17.59;60.01;97913.06;8479815;27;20228;-70
2023/05/12 15:15:32;;;;;;;3.33;3.03;;;;;;;17.19;60.01;97913.34;8479710;28;20234;-70
2023/05/12 15:19:37;;;;;;;3.43;3.13;;;;;;;17.15;59.53;97915.38;8479910;28;20229;-70
2023/05/12 15:23:42;;;;;;;3.27;3.00;;;;;;;17.06;59.66;97916.03;8479546;28;20227;-70
2023/05/12 15:27:45;;;;;;;3.43;2.57;;;;;;;17.29;59.92;97914.38;8479899;27;20226;-70
2023/05/12 15:31:48;;;;;;;2.70;2.50;;;;;;;17.01;60.28;97912.91;8479712;28;20421;-70
2023/05/12 15:35:52;;;;;;;2.83;2.63;;;;;;;16.76;59.35;97913.78;8479712;28;20237;-70
2023/05/12 15:39:55;;;;;;;3.10;2.27;;;;;;;16.61;58.49;97879.09;8479331;28;20245;-70
2023/05/12 15:43:58;;;;;;;2.20;2.00;;;;;;;16.81;57.92;97909.91;8478953;27;20230;-70
2023/05/12 15:48:00;;;;;;;3.17;2.13;;;;;;;16.86;57.25;97911.38;8478804;28;20229;-70
2023/05/12 15:52:06;;;;;;;3.40;2.23;;;;;;;17.05;56.77;97909.13;8479249;28;20223;-70
2023/05/12 15:56:09;;;;;;;2.57;2.20;;;;;;;17.15;56.65;97909.28;8479234;28;20240;-70
2023/05/12 16:00:13;;;;;;;3.53;2.30;;;;;;;17.14;54.94;97899.78;8479138;28;20542;-70
2023/05/12 16:04:15;;;;;;;2.13;1.93;;;;;;;17.47;55.12;97911.34;8478621;28;20338;-70
2023/05/12 16:08:20;;;;;;;3.33;2.43;;;;;;;17.04;57.71;97909.22;8470226;28;20227;-71
2023/05/12 16:12:23;;;;;;;2.50;2.30;;;;;;;17.59;56.25;97892.97;8478831;28;20235;-70
2023/05/12 16:16:26;;;;;;;3.60;2.40;;;;;;;17.65;55.56;97880.34;8478315;28;20230;-70
2023/05/12 16:20:36;;;;;;;3.00;2.30;;;;;;;17.78;54.22;97878.47;8484299;28;20300;-70
2023/05/12 16:24:41;;;;;;;2.67;2.57;;;;;;;17.73;54.23;97899.78;8483675;28;20239;-70
2023/05/12 16:28:44;;;;;;;3.03;2.43;;;;;;;17.53;53.94;97892.56;8484054;27;20225;-70
2023/05/12 16:32:47;;;;;;;3.50;2.00;;;;;;;17.25;54.98;97892.00;8483970;28;20231;-70
2023/05/12 16:36:49;;;;;;;2.20;2.00;;;;;;;17.31;53.82;97893.34;8483694;28;20298;-70
2023/05/12 16:40:53;;;;;;;2.63;2.40;;;;;;;17.63;53.76;97895.34;8483878;27;20223;-70
2023/05/12 16:44:56;;;;;;;2.80;2.50;;;;;;;17.64;53.72;97873.47;8483670;28;20238;-70
2023/05/12 16:48:59;;;;;;;6.40;5.80;;;;;;;17.59;54.02;97889.50;8483453;27;20231;-70
2023/05/12 16:53:02;;;;;;;2.70;2.50;;;;;;;17.46;54.54;97899.19;8483503;28;20231;-70
2023/05/12 16:57:06;;;;;;;2.70;2.50;;;;;;;17.71;54.66;97904.31;8483379;28;20228;-70
2023/05/12 17:01:09;;;;;;;2.10;2.00;;;;;;;17.86;54.92;97899.75;8483647;27;20329;-70
2023/05/12 17:05:12;;;;;;;2.80;2.60;;;;;;;17.42;54.89;97901.22;8483253;28;20236;-70
2023/05/12 17:09:14;;;;;;;2.93;2.70;;;;;;;17.13;54.95;97906.78;8483522;27;20234;-70
2023/05/12 17:13:20;;;;;;;3.03;2.20;;;;;;;17.52;54.40;97911.88;8483173;27;20258;-71
2023/05/12 17:17:22;;;;;;;3.07;2.37;;;;;;;17.48;53.25;97920.91;8474884;28;20427;-70
2023/05/12 17:21:27;;;;;;;2.20;2.10;;;;;;;17.36;52.95;97907.75;8482925;27;20227;-70
2023/05/12 17:25:30;;;;;;;3.03;2.40;;;;;;;17.52;51.92;97915.31;8482765;28;20569;-70
2023/05/12 17:29:34;;;;;;;2.87;2.10;;;;;;;17.27;53.31;97891.84;8482319;28;20231;-70
2023/05/12 17:33:37;;;;;;;3.50;3.20;;;;;;;17.57;53.18;97914.97;8482225;27;20226;-70
2023/05/12 17:37:40;;;;;;;3.00;1.87;;;;;;;17.43;53.37;97902.88;8482038;28;20227;-69
2023/05/12 17:41:43;;;;;;;1.83;1.73;;;;;;;17.49;52.92;97922.56;8482457;27;20290;-71
2023/05/12 17:45:48;;;;;;;2.00;1.80;;;;;;;17.38;53.60;97931.19;8481641;27;20231;-69
2023/05/12 17:49:51;;;;;;;2.00;1.80;;;;;;;17.36;53.32;97927.84;8481944;28;20223;-71
2023/05/12 17:53:56;;;;;;;3.50;1.60;;;;;;;17.58;54.88;97924.50;8481751;27;20240;-70
2023/05/12 17:57:59;;;;;;;2.30;1.67;;;;;;;17.39;52.14;97938.91;8481417;27;20229;-69
2023/05/12 18:02:04;;;;;;;1.47;1.37;;;;;;;17.23;51.68;97934.91;8481285;28;20222;-69
2023/05/12 18:06:11;;;;;;;2.97;1.80;;;;;;;17.47;53.42;97934.91;8481413;28;20250;-69
2023/05/12 18:10:14;;;;;;;2.20;1.57;;;;;;;17.58;53.25;97943.66;8481199;27;20230;-69
2023/05/12 18:14:17;;;;;;;2.30;1.60;;;;;;;17.42;52.44;97937.88;8480847;28;20238;-70
2023/05/12 18:18:21;;;;;;;1.60;1.50;;;;;;;17.45;53.78;97939.44;8472611;28;20231;-69
2023/05/12 18:22:24;;;;;;;2.00;1.90;;;;;;;17.29;52.36;97924.03;8480837;27;20416;-71
2023/05/12 18:26:27;;;;;;;4.00;1.63;;;;;;;17.19;53.18;97953.47;8480375;27;20233;-69
2023/05/12 18:30:30;;;;;;;1.93;1.70;;;;;;;16.91;53.54;97940.66;8480678;28;20477;-69
2023/05/12 18:34:34;;;;;;;1.90;1.80;;;;;;;16.68;53.28;97960.53;8480469;27;20237;-70
2023/05/12 18:38:37;;;;;;;2.77;1.53;;;;;;;16.85;53.84;97959.38;8480441;28;20233;-69
2023/05/12 18:42:42;;;;;;;4.67;1.77;;;;;;;16.72;53.09;97965.47;8479416;28;20229;-70
2023/05/12 18:46:44;;;;;;;2.23;1.80;;;;;;;16.69;52.50;97970.88;8480177;27;20226;-69
2023/05/12 18:50:49;;;;;;;4.10;1.70;;;;;;;16.81;54.40;97953.50;8480013;28;20585;-69
2023/05/12 18:54:52;;;;;;;2.47;1.60;;;;;;;16.90;53.14;97984.28;8479932;27;20232;-69
2023/05/12 18:58:55;;;;;;;2.40;1.60;;;;;;;16.79;53.88;97960.63;8480099;27;20549;-69
2023/05/12 19:02:58;;;;;;;3.13;1.93;;;;;;;16.71;52.46;97958.53;8479768;28;20226;-69
2023/05/12 19:07:02;;;;;;;2.83;2.20;;;;;;;16.71;52.93;97995.16;8479745;28;20530;-69
2023/05/12 19:11:05;;;;;;;2.97;2.67;;;;;;;16.97;53.67;98003.84;8479644;28;20525;-69